Archival Weather

Lamerd

Lamerd, Iran (OISR)

Report from: Saturday, April 1, 2023 7:00 AM UTC
Current time: Tuesday, March 5, 2024 12:25 AM UTC

Current weather – Weather history – Daily summaries
Weather forecast

Temperature27.0°C (80.6°F)
Heat index27.1°C (80.9°F)
Dew point12.0°C (53.6°F)
Winds 6 kts (3.1 m/s, 6.9 mph) West-Northwest (290°)
Clouds Sky clear
Altimeter29.90 in.Hg (1013 mB)
Relative humidity39 %
Density altitude1,606 ft. (489 m)
Remarks Ceiling and visibility OK
Flight conditions Visual Meteorological Conditions
Raw dataOISR 010700Z 29006KT CAVOK 27/12 Q1012 A2990
An error has occurred. This application may no longer respond until reloaded. Reload 🗙